Time;durP1;ratioP1;P1;durP2;ratioP2;P2;SDS_P1;SDS_P2;PMS_P1;PMS_P2;Temp;Humidity;BMP_temperature;BMP_pressure;BME280_temperature;BME280_humidity;BME280_pressure;Samples;Min_cycle;Max_cycle;Signal;HPM_P1;HPM_P2
2021/03/12 00:01:07;;;;;;;1.83;1.83;;;6.00;99.90;;;6.96;82.69;97192.25;5207253;28;20230;-60
2021/03/12 00:03:40;;;;;;;2.07;1.97;;;6.00;99.90;;;6.88;82.18;97198.53;5206371;28;20194;-59
2021/03/12 00:06:12;;;;;;;2.07;1.97;;;6.10;99.90;;;6.67;83.49;97190.50;5207025;28;20208;-60
2021/03/12 00:08:47;;;;;;;2.10;1.90;;;6.00;99.90;;;6.62;84.88;97182.59;5206246;28;20202;-59
2021/03/12 00:11:21;;;;;;;1.50;1.50;;;6.00;99.90;;;6.77;83.05;97188.59;5207068;28;20210;-60
2021/03/12 00:13:53;;;;;;;2.00;1.90;;;6.10;99.90;;;6.69;83.47;97189.78;5206697;28;20737;-60
2021/03/12 00:16:25;;;;;;;2.10;2.00;;;6.00;99.90;;;6.83;82.85;97194.84;5206630;28;20198;-60
2021/03/12 00:18:58;;;;;;;1.90;1.80;;;6.00;99.90;;;6.67;83.45;97191.38;5206865;28;20202;-58
2021/03/12 00:21:30;;;;;;;2.27;2.17;;;5.90;99.90;;;6.72;83.21;97192.53;5205735;28;20221;-59
2021/03/12 00:24:03;;;;;;;2.00;1.80;;;5.90;99.90;;;6.71;83.92;97203.47;5206655;28;20232;-60
2021/03/12 00:26:35;;;;;;;2.10;2.00;;;5.90;99.90;;;6.86;82.92;97205.19;5206157;28;20547;-60
2021/03/12 00:29:07;;;;;;;3.17;1.63;;;5.90;99.90;;;6.77;84.38;97203.84;5206437;28;20202;-58
2021/03/12 00:31:39;;;;;;;1.67;1.57;;;6.00;99.90;;;6.99;82.46;97208.56;5206174;28;20281;-60
2021/03/12 00:34:12;;;;;;;1.90;1.80;;;6.10;99.90;;;7.05;82.57;97210.59;5206443;28;20594;-60
2021/03/12 00:36:44;;;;;;;1.93;1.83;;;6.20;99.90;;;7.09;80.82;97204.91;5206024;28;20233;-60
2021/03/12 00:39:16;;;;;;;2.07;1.97;;;6.40;99.90;;;7.19;81.19;97203.78;5205764;28;20199;-60
2021/03/12 00:42:08;;;;;;;2.13;1.93;;;6.40;99.90;;;7.19;81.52;97201.25;5206033;28;20218;-60
2021/03/12 00:44:40;;;;;;;2.07;1.97;;;6.40;99.90;;;7.20;80.79;97205.53;5205992;28;20206;-58
2021/03/12 00:47:12;;;;;;;2.33;2.23;;;6.50;99.90;;;7.29;80.22;97212.84;5204896;28;20205;-60
2021/03/12 00:49:45;;;;;;;2.00;1.90;;;6.50;99.90;;;7.20;80.73;97216.56;5206086;28;20228;-59
2021/03/12 00:52:17;;;;;;;1.90;1.80;;;6.50;99.90;;;7.28;80.02;97214.50;5204821;28;20205;-60
2021/03/12 00:54:49;;;;;;;1.90;1.80;;;6.60;99.90;;;7.25;80.45;97218.53;5205614;28;20209;-59
2021/03/12 00:57:21;;;;;;;2.43;2.10;;;6.60;99.90;;;7.26;80.58;97220.28;5185510;28;20207;-59
2021/03/12 00:59:53;;;;;;;2.30;2.20;;;6.60;99.90;;;7.27;80.47;97216.94;5187820;28;20223;-59
2021/03/12 01:02:25;;;;;;;2.00;1.90;;;6.60;99.90;;;7.25;80.24;97223.63;5206948;28;20213;-60
2021/03/12 01:04:58;;;;;;;2.03;1.90;;;6.60;99.90;;;7.26;80.49;97215.19;5207043;28;20289;-59
2021/03/12 01:07:30;;;;;;;1.97;1.77;;;6.60;99.90;;;7.26;80.26;97215.19;5206877;28;20194;-59
2021/03/12 01:10:04;;;;;;;2.40;2.30;;;6.50;99.90;;;7.27;80.12;97225.47;5207027;28;20221;-59
2021/03/12 01:12:37;;;;;;;2.07;1.73;;;6.60;99.90;;;7.28;80.79;97237.38;5207321;28;20220;-60
2021/03/12 01:15:13;;;;;;;2.20;2.07;;;6.60;99.90;;;7.38;79.82;97247.31;5207302;28;20194;-59
2021/03/12 01:17:46;;;;;;;1.77;1.67;;;6.60;99.90;;;7.32;79.82;97251.13;5207404;28;20288;-58
2021/03/12 01:20:23;;;;;;;2.20;2.00;;;6.50;99.90;;;7.42;79.79;97258.53;5207105;28;20221;-60
2021/03/12 01:22:57;;;;;;;2.20;2.10;;;6.60;99.90;;;7.34;80.47;97259.75;5205459;28;20198;-59
2021/03/12 01:25:34;;;;;;;3.77;2.40;;;6.50;99.90;;;7.41;79.32;97256.75;5206826;28;20193;-59
2021/03/12 01:28:08;;;;;;;2.40;2.30;;;6.60;99.90;;;7.41;79.80;97256.75;5207253;28;20205;-60
2021/03/12 01:30:43;;;;;;;3.10;1.93;;;6.60;99.90;;;7.42;79.60;97263.63;5206788;28;20229;-60
2021/03/12 01:33:15;;;;;;;2.47;2.27;;;6.60;99.90;;;7.52;78.90;97265.91;5206273;28;20200;-59
2021/03/12 01:35:48;;;;;;;2.40;2.20;;;6.60;99.90;;;7.54;78.99;97264.34;5186496;28;20682;-59
2021/03/12 01:38:19;;;;;;;3.27;2.30;;;6.50;99.90;;;7.51;79.81;97259.06;5201717;28;20198;-59
2021/03/12 01:40:52;;;;;;;2.90;2.30;;;6.50;99.90;;;7.51;79.34;97269.25;5206008;28;20232;-60
2021/03/12 01:43:24;;;;;;;3.87;2.27;;;6.60;99.90;;;7.56;78.87;97272.94;5205338;28;20194;-61
2021/03/12 01:45:56;;;;;;;2.60;2.07;;;6.60;99.90;;;7.48;79.54;97269.06;5205731;28;20202;-60
2021/03/12 01:48:28;;;;;;;3.57;2.27;;;6.60;99.90;;;7.51;79.13;97265.81;5204574;28;20196;-61
2021/03/12 01:51:03;;;;;;;2.40;2.20;;;6.50;99.90;;;7.36;78.91;97279.38;5196283;28;20209;-60
2021/03/12 01:53:37;;;;;;;2.60;2.20;;;6.50;99.90;;;7.38;78.72;97271.84;5205598;28;20613;-59
2021/03/12 01:56:10;;;;;;;4.47;2.43;;;6.50;99.90;;;7.21;79.13;97266.63;5204726;28;20289;-60
2021/03/12 01:58:42;;;;;;;2.33;2.00;;;6.40;99.90;;;7.27;78.81;97263.59;5205059;28;20204;-61
2021/03/12 02:01:15;;;;;;;2.20;2.10;;;6.30;99.90;;;7.32;77.49;97274.00;5204724;28;20221;-60
2021/03/12 02:03:47;;;;;;;3.40;2.43;;;6.40;99.90;;;7.24;77.84;97288.81;5205118;28;20213;-59
2021/03/12 02:06:20;;;;;;;2.37;2.27;;;6.40;99.90;;;7.08;78.63;97289.53;5204536;28;20673;-59
2021/03/12 02:08:52;;;;;;;2.83;2.33;;;6.30;99.90;;;7.20;79.06;97297.91;5204698;28;20204;-60
2021/03/12 02:11:25;;;;;;;2.80;2.40;;;6.30;99.90;;;7.35;77.24;97297.06;5204588;28;20587;-60
2021/03/12 02:14:03;;;;;;;3.33;2.40;;;6.40;99.90;;;7.23;76.26;97313.34;5205338;28;20206;-60
2021/03/12 02:16:41;;;;;;;2.60;2.40;;;6.40;99.90;;;7.40;73.31;97331.28;5204827;28;20202;-60
2021/03/12 02:19:33;;;;;;;5.70;2.53;;;6.50;99.90;;;7.38;70.27;97332.84;5204233;28;20226;-59
2021/03/12 02:22:07;;;;;;;4.43;2.60;;;6.70;99.90;;;7.44;70.57;97345.97;5204660;28;20218;-59
2021/03/12 02:24:44;;;;;;;3.33;2.40;;;6.70;99.90;;;7.50;69.50;97348.88;5203740;28;20201;-60
2021/03/12 02:27:21;;;;;;;4.43;2.60;;;6.80;99.90;;;7.34;70.27;97372.47;5202909;28;20200;-60
2021/03/12 02:29:56;;;;;;;3.87;2.17;;;6.70;99.90;;;7.36;68.90;97364.94;5204046;28;20236;-61
2021/03/12 02:32:35;;;;;;;4.53;2.43;;;6.70;99.90;;;7.25;70.79;97348.16;5204334;28;20641;-60
2021/03/12 02:35:11;;;;;;;3.60;2.47;;;6.60;99.90;;;7.12;71.65;97344.84;5202155;28;20292;-61
2021/03/12 02:37:45;;;;;;;2.43;2.20;;;6.50;99.90;;;7.05;71.95;97336.75;5204759;28;20232;-61
2021/03/12 02:40:20;;;;;;;4.03;2.43;;;6.40;99.90;;;7.07;71.35;97333.53;5203472;28;20598;-61
2021/03/12 02:42:53;;;;;;;2.57;2.20;;;6.30;99.90;;;6.88;71.38;97343.31;5199491;28;20290;-60
2021/03/12 02:45:25;;;;;;;3.83;2.33;;;6.20;99.90;;;6.89;71.73;97342.53;5207841;28;20287;-60
2021/03/12 02:47:58;;;;;;;3.63;2.40;;;6.20;99.90;;;6.97;71.46;97356.59;5210473;28;20358;-60
2021/03/12 02:50:30;;;;;;;2.47;2.23;;;6.20;99.90;;;6.91;72.55;97353.69;5209327;28;20228;-60
2021/03/12 02:53:02;;;;;;;3.00;2.70;;;6.10;99.90;;;6.98;72.03;97343.09;5210477;28;20579;-58
2021/03/12 02:55:35;;;;;;;2.77;2.10;;;6.20;99.90;;;7.05;71.22;97341.84;5209624;28;20190;-60
2021/03/12 02:58:10;;;;;;;3.40;2.40;;;6.20;99.90;;;7.12;69.66;97342.28;5210267;28;20690;-58
2021/03/12 03:00:42;;;;;;;2.83;2.50;;;6.30;99.90;;;7.10;70.32;97335.38;5210009;28;20221;-60
2021/03/12 03:03:15;;;;;;;2.93;2.10;;;6.30;99.90;;;7.12;69.70;97349.91;5209448;28;20212;-60
2021/03/12 03:05:48;;;;;;;2.80;2.30;;;6.30;99.90;;;7.00;70.18;97349.16;5209362;28;20540;-58
2021/03/12 03:08:20;;;;;;;3.73;2.40;;;6.20;99.90;;;7.00;69.94;97349.16;5209652;28;20225;-60
2021/03/12 03:10:54;;;;;;;2.97;2.03;;;6.20;99.90;;;7.02;69.68;97346.75;5208784;28;20226;-60
2021/03/12 03:13:30;;;;;;;4.37;2.50;;;6.20;99.90;;;6.86;70.90;97344.88;5210037;28;20209;-60
2021/03/12 03:16:05;;;;;;;2.90;2.47;;;6.10;99.90;;;6.72;71.49;97350.00;5209367;28;20708;-60
2021/03/12 03:18:39;;;;;;;2.50;2.30;;;6.00;99.90;;;6.61;71.87;97353.50;5208909;28;20204;-60
2021/03/12 03:21:13;;;;;;;2.87;2.23;;;5.90;99.90;;;6.64;71.73;97347.72;5208647;28;20683;-60
2021/03/12 03:23:46;;;;;;;2.77;2.27;;;5.80;99.90;;;6.48;72.78;97344.22;5209075;28;20197;-60
2021/03/12 03:26:18;;;;;;;2.83;2.30;;;5.70;99.90;;;6.59;71.98;97349.97;5208698;28;20649;-60
2021/03/12 03:28:52;;;;;;;2.53;2.33;;;5.70;99.90;;;6.51;71.84;97349.47;5208316;28;20689;-60
2021/03/12 03:31:24;;;;;;;2.60;2.40;;;5.70;99.90;;;6.61;71.29;97353.50;5209339;28;20439;-59
2021/03/12 03:33:57;;;;;;;2.43;2.30;;;5.70;99.90;;;6.70;70.64;97358.28;5208864;28;20229;-60
2021/03/12 03:36:29;;;;;;;2.90;2.60;;;5.80;99.90;;;6.53;72.08;97352.13;5208996;28;20206;-60
2021/03/12 03:39:01;;;;;;;5.03;2.30;;;5.70;99.90;;;6.63;72.14;97357.00;5207977;28;20197;-60
2021/03/12 03:41:33;;;;;;;2.77;2.20;;;5.70;99.90;;;6.67;72.54;97353.03;5208913;28;20222;-60
2021/03/12 03:44:26;;;;;;;2.57;2.10;;;5.70;99.90;;;6.71;71.97;97363.44;5188467;28;20802;-60
2021/03/12 03:47:02;;;;;;;2.57;2.37;;;5.80;99.90;;;6.78;71.91;97364.72;5188033;28;20704;-60
2021/03/12 03:49:36;;;;;;;5.23;2.10;;;5.80;99.90;;;6.73;73.31;97372.06;5187664;28;20257;-57
2021/03/12 03:52:09;;;;;;;3.83;2.20;;;5.80;99.90;;;6.75;73.71;97367.06;5202747;28;20289;-60
2021/03/12 03:54:42;;;;;;;2.63;2.50;;;5.80;99.90;;;6.83;73.30;97380.25;5208674;28;20197;-61
2021/03/12 03:57:17;;;;;;;3.73;2.27;;;5.80;99.90;;;6.74;73.03;97381.41;5206988;28;20200;-60
2021/03/12 03:59:51;;;;;;;2.30;2.10;;;5.80;99.90;;;6.79;74.04;97391.88;5208255;28;20225;-60
2021/03/12 04:02:23;;;;;;;2.63;2.30;;;5.80;99.90;;;6.80;73.26;97395.31;5206676;28;20228;-60
2021/03/12 04:04:56;;;;;;;3.83;2.33;;;5.80;99.90;;;6.66;74.18;97402.91;5207945;28;20204;-60
2021/03/12 04:07:28;;;;;;;3.77;2.60;;;5.80;99.90;;;6.66;74.35;97407.09;5207289;28;20205;-60
2021/03/12 04:10:03;;;;;;;4.20;2.50;;;5.80;99.90;;;6.73;74.00;97406.75;5207455;28;20222;-60
2021/03/12 04:12:38;;;;;;;3.57;2.40;;;5.80;99.90;;;6.88;72.64;97419.53;5208440;28;20200;-60
2021/03/12 04:15:11;;;;;;;3.60;2.47;;;5.80;99.90;;;6.73;73.38;97430.47;5207100;28;20197;-60
2021/03/12 04:17:44;;;;;;;2.70;2.50;;;5.70;99.90;;;6.79;72.25;97429.97;5207651;28;20202;-58
2021/03/12 04:20:17;;;;;;;3.73;2.27;;;5.80;99.90;;;6.84;71.71;97433.72;5207627;28;20240;-61
2021/03/12 04:22:50;;;;;;;3.10;2.53;;;5.80;99.90;;;6.86;70.62;97437.19;5206276;28;20234;-60
2021/03/12 04:25:23;;;;;;;2.87;2.10;;;5.80;99.90;;;6.95;69.96;97440.34;5206059;28;20225;-60
2021/03/12 04:27:56;;;;;;;2.37;2.00;;;5.90;99.90;;;6.90;68.64;97445.94;5206285;28;20574;-60
2021/03/12 04:30:29;;;;;;;3.93;2.50;;;6.00;99.90;;;6.84;67.68;97458.19;5206388;28;20225;-60
2021/03/12 04:33:02;;;;;;;2.77;2.43;;;6.00;99.90;;;6.86;66.57;97447.38;5206122;28;20214;-60
2021/03/12 04:35:34;;;;;;;3.30;2.33;;;6.10;99.90;;;6.81;65.75;97458.00;5206069;28;20194;-60
2021/03/12 04:38:07;;;;;;;3.37;2.40;;;6.00;99.90;;;6.77;64.48;97462.88;5205980;28;20584;-60
2021/03/12 04:40:40;;;;;;;2.80;2.60;;;6.00;99.90;;;6.77;63.46;97462.88;5196679;28;20220;-60
2021/03/12 04:43:12;;;;;;;2.97;2.43;;;6.00;99.90;;;6.65;63.27;97457.03;5206042;28;20202;-60
2021/03/12 04:45:45;;;;;;;2.33;2.00;;;5.90;99.90;;;6.74;62.24;97466.91;5206042;28;20632;-59
2021/03/12 04:48:18;;;;;;;3.37;2.60;;;6.00;99.90;;;6.79;61.62;97474.81;5205784;28;20210;-60
2021/03/12 04:50:50;;;;;;;3.83;2.33;;;6.00;99.90;;;6.75;61.22;97472.09;5205901;28;20222;-60
2021/03/12 04:53:22;;;;;;;2.50;2.30;;;6.00;99.90;;;6.57;61.97;97468.31;5206177;28;20201;-60
2021/03/12 04:55:54;;;;;;;3.53;2.03;;;5.80;99.90;;;6.58;62.38;97465.03;5205945;28;20209;-60
2021/03/12 04:58:27;;;;;;;3.33;2.20;;;5.80;99.90;;;6.52;62.49;97467.13;5205603;28;20210;-60
2021/03/12 05:01:00;;;;;;;2.57;2.37;;;5.80;99.90;;;6.49;62.05;97470.34;5203825;28;20233;-60
2021/03/12 05:03:32;;;;;;;3.77;2.20;;;5.70;99.90;;;6.48;61.81;97473.69;5203883;28;20202;-60
2021/03/12 05:06:05;;;;;;;3.93;2.53;;;5.60;99.90;;;6.53;60.52;97477.41;5204614;28;20281;-60
2021/03/12 05:08:38;;;;;;;4.63;2.87;;;5.80;99.90;;;6.51;61.17;97491.66;5204770;28;20208;-59
2021/03/12 05:11:11;;;;;;;2.77;2.10;;;5.70;99.90;;;6.40;61.97;97484.09;5203169;28;20213;-60
2021/03/12 05:13:43;;;;;;;5.93;2.77;;;5.70;99.90;;;6.36;63.19;97497.38;5204913;28;20194;-60
2021/03/12 05:16:16;;;;;;;4.17;2.60;;;5.60;99.90;;;6.57;60.85;97490.31;5203984;28;20222;-59
2021/03/12 05:18:48;;;;;;;3.67;2.53;;;5.80;99.90;;;6.44;62.59;97498.75;5204963;28;20692;-60
2021/03/12 05:21:20;;;;;;;4.57;2.67;;;5.70;99.90;;;6.48;62.07;97498.19;5205097;28;20316;-60
2021/03/12 05:23:52;;;;;;;6.73;2.73;;;5.70;99.90;;;6.40;62.05;97496.78;5204975;28;20237;-60
2021/03/12 05:26:25;;;;;;;3.47;2.50;;;5.70;99.90;;;6.59;61.58;97504.88;5205095;28;20288;-60
2021/03/12 05:28:57;;;;;;;2.87;2.50;;;5.80;99.90;;;6.52;60.54;97489.97;5204722;28;20201;-60
2021/03/12 05:31:30;;;;;;;3.10;2.10;;;5.80;99.90;;;6.55;61.40;97495.25;5204604;28;20217;-60
2021/03/12 05:34:03;;;;;;;5.40;2.70;;;5.80;99.90;;;6.44;61.92;97489.50;5205367;28;20288;-60
2021/03/12 05:36:38;;;;;;;6.10;2.90;;;5.70;99.90;;;6.53;61.24;97484.16;5204595;28;20296;-60
2021/03/12 05:39:10;;;;;;;3.73;2.53;;;5.70;99.90;;;6.56;60.80;97481.81;5205208;28;20221;-60
2021/03/12 05:41:42;;;;;;;3.63;2.30;;;5.70;99.90;;;6.44;61.20;97492.03;5204772;28;20228;-60
2021/03/12 05:44:16;;;;;;;4.10;2.77;;;5.70;99.90;;;6.54;61.44;97498.59;5204639;28;20658;-60
2021/03/12 05:46:49;;;;;;;4.10;2.80;;;5.60;99.90;;;6.59;60.44;97501.44;5202851;28;20204;-61
2021/03/12 05:49:22;;;;;;;5.43;2.63;;;5.70;99.90;;;6.67;58.76;97495.22;5202971;28;20224;-60
2021/03/12 05:51:55;;;;;;;4.23;2.60;;;5.80;99.90;;;6.61;59.67;97494.78;5204947;28;20205;-60
2021/03/12 05:54:27;;;;;;;6.77;3.17;;;5.80;99.90;;;6.59;59.49;97502.31;5203652;28;20190;-60
2021/03/12 05:56:59;;;;;;;3.57;2.50;;;5.80;99.90;;;6.57;59.59;97506.41;5199916;28;20205;-60
2021/03/12 05:59:33;;;;;;;3.43;2.60;;;5.70;99.90;;;6.52;59.47;97507.75;5203051;28;20611;-61
2021/03/12 06:02:06;;;;;;;4.47;2.70;;;5.70;99.90;;;6.46;61.00;97509.88;5204026;28;20216;-60
2021/03/12 06:04:38;;;;;;;5.27;2.60;;;5.60;99.90;;;6.48;60.66;97508.34;5205061;28;20209;-61
2021/03/12 06:07:13;;;;;;;3.07;2.37;;;5.60;99.90;;;6.42;60.79;97515.56;5203903;28;20190;-60
2021/03/12 06:09:45;;;;;;;5.03;2.57;;;5.60;99.90;;;6.50;60.65;97515.28;5204777;28;20248;-60
2021/03/12 06:12:17;;;;;;;4.63;2.80;;;5.50;99.90;;;6.38;61.36;97511.94;5204702;28;20588;-59
2021/03/12 06:14:53;;;;;;;6.03;2.87;;;5.50;99.90;;;6.32;61.52;97512.41;5204779;28;20202;-60
2021/03/12 06:17:35;;;;;;;4.77;2.63;;;5.50;99.90;;;6.22;62.46;97519.28;5202055;28;20197;-60
2021/03/12 06:20:11;;;;;;;5.53;2.93;;;5.40;99.90;;;6.21;62.76;97523.47;5205854;28;20597;-61
2021/03/12 06:22:51;;;;;;;3.27;2.63;;;5.40;99.90;;;6.24;63.06;97526.22;5208312;28;20221;-61
2021/03/12 06:25:25;;;;;;;5.87;3.00;;;5.40;99.90;;;6.24;63.26;97533.84;5208937;28;20220;-61
2021/03/12 06:28:13;;;;;;;3.60;2.50;;;5.40;99.90;;;6.32;63.61;97537.78;5207720;28;20212;-61
2021/03/12 06:30:46;;;;;;;3.73;2.70;;;5.40;99.90;;;6.69;61.67;97539.34;5208768;28;20720;-61
2021/03/12 06:33:32;;;;;;;3.97;2.17;;;5.70;99.90;;;7.02;61.70;97544.91;5208760;28;20274;-61
2021/03/12 06:36:05;;;;;;;4.30;2.10;;;5.90;99.90;;;7.16;61.44;97550.13;5208917;28;20553;-61
2021/03/12 06:38:55;;;;;;;4.73;2.60;;;6.00;99.90;;;7.20;60.58;97539.34;5208258;28;20202;-60
2021/03/12 06:41:46;;;;;;;4.13;2.80;;;6.00;99.90;;;7.14;61.95;97551.66;5208216;28;20308;-61
2021/03/12 06:44:31;;;;;;;4.87;2.70;;;6.10;99.90;;;7.82;60.59;97553.44;5201030;28;20209;-61
2021/03/12 06:47:05;;;;;;;4.70;2.80;;;6.30;99.90;;;8.45;58.38;97553.09;5207809;28;20198;-60
2021/03/12 06:49:54;;;;;;;4.00;2.67;;;6.70;99.90;;;8.46;56.67;97553.97;5208127;28;20217;-61
2021/03/12 06:52:33;;;;;;;5.27;2.70;;;6.70;99.90;;;8.17;57.48;97555.59;5206738;28;20197;-63
2021/03/12 06:55:07;;;;;;;3.13;2.80;;;6.60;99.90;;;7.94;57.99;97561.81;5207964;28;20279;-61
2021/03/12 06:57:39;;;;;;;4.27;2.60;;;6.50;99.90;;;7.93;58.44;97575.34;5207451;28;20194;-61
2021/03/12 07:00:12;;;;;;;5.97;2.97;;;6.50;99.90;;;8.62;56.44;97576.16;5207688;28;20217;-61
2021/03/12 07:02:45;;;;;;;4.13;2.60;;;7.00;99.90;;;8.95;55.56;97565.41;5206094;28;20303;-61
2021/03/12 07:05:18;;;;;;;4.40;2.43;;;7.40;99.90;;;9.29;54.38;97572.44;5204768;28;20282;-61
2021/03/12 07:07:50;;;;;;;4.00;2.97;;;7.80;99.90;;;9.43;54.47;97574.09;5207652;28;20676;-62
2021/03/12 07:10:34;;;;;;;4.10;2.50;;;8.10;99.90;;;9.49;54.93;97578.69;5207937;28;20217;-60
2021/03/12 07:13:13;;;;;;;4.53;2.30;;;8.10;99.90;;;9.40;54.71;97581.59;5208027;28;20201;-60
2021/03/12 07:15:45;;;;;;;4.83;2.70;;;8.20;99.90;;;9.39;55.55;97579.84;5207095;28;20208;-61
2021/03/12 07:18:17;;;;;;;4.13;2.33;;;8.10;99.90;;;9.32;55.13;97587.03;5207900;28;20232;-60
2021/03/12 07:20:51;;;;;;;4.70;2.57;;;7.90;99.90;;;9.22;56.14;97590.75;5207575;28;20230;-60
2021/03/12 07:23:23;;;;;;;3.10;2.43;;;7.70;99.90;;;9.07;55.87;97594.94;5207460;28;20302;-61
2021/03/12 07:25:55;;;;;;;4.13;2.23;;;7.60;99.90;;;9.03;56.46;97597.31;5205150;28;20296;-61
2021/03/12 07:28:29;;;;;;;3.57;2.07;;;7.50;99.90;;;8.87;57.27;97604.88;5206454;28;20206;-60
2021/03/12 07:31:05;;;;;;;3.53;2.10;;;7.70;99.90;;;8.71;58.00;97612.38;5206480;28;20289;-59
2021/03/12 07:33:39;;;;;;;3.23;2.23;;;7.70;99.90;;;8.63;58.29;97603.38;5206958;28;20342;-60
2021/03/12 07:36:15;;;;;;;3.47;2.10;;;7.60;99.90;;;8.53;59.15;97610.47;5206372;28;20190;-60
2021/03/12 07:38:48;;;;;;;3.83;2.30;;;7.40;99.90;;;8.33;60.01;97613.44;5204830;28;20555;-60
2021/03/12 07:41:20;;;;;;;4.43;2.30;;;7.30;99.90;;;8.43;59.98;97610.69;5205103;28;20304;-60
2021/03/12 07:43:53;;;;;;;4.97;2.53;;;7.50;99.90;;;8.69;59.94;97611.41;5205311;28;20231;-60
2021/03/12 07:46:27;;;;;;;5.97;2.40;;;8.00;99.90;;;9.05;59.21;97615.25;5205318;28;20198;-60
2021/03/12 07:48:59;;;;;;;3.43;2.27;;;8.40;99.90;;;9.34;58.26;97619.50;5205012;28;20298;-59
2021/03/12 07:51:46;;;;;;;4.17;2.33;;;8.70;99.90;;;9.62;58.16;97628.75;5205401;28;20293;-59
2021/03/12 07:54:50;;;;;;;2.87;2.37;;;8.90;99.90;;;9.79;56.37;97617.81;5205225;28;20198;-60
2021/03/12 07:57:44;;;;;;;2.60;1.83;;;9.30;99.90;;;9.88;56.30;97618.31;5201693;28;20194;-60
2021/03/12 08:00:17;;;;;;;5.77;3.00;;;9.20;99.90;;;10.00;56.20;97617.25;5197993;28;20220;-60
2021/03/12 08:03:00;;;;;;;3.57;2.40;;;9.10;99.90;;;10.20;56.54;97616.66;5204619;28;20587;-60
2021/03/12 08:05:40;;;;;;;4.17;2.23;;;9.50;99.90;;;10.22;54.76;97617.63;5204182;28;20193;-60
2021/03/12 08:08:32;;;;;;;2.57;2.23;;;9.30;99.90;;;10.29;54.33;97627.41;5203289;28;20197;-65
2021/03/12 08:11:18;;;;;;;3.33;1.83;;;9.30;99.90;;;10.21;54.60;97620.09;5203879;28;20224;-59
2021/03/12 08:13:51;;;;;;;4.03;1.90;;;9.30;99.90;;;10.35;54.44;97624.28;5202440;28;20584;-58
2021/03/12 08:16:24;;;;;;;3.47;2.20;;;9.20;99.90;;;10.19;53.68;97626.78;5204632;28;20233;-58
2021/03/12 08:19:28;;;;;;;3.13;2.30;;;9.10;99.90;;;9.99;54.32;97624.03;5204996;28;20217;-60
2021/03/12 08:22:01;;;;;;;2.53;2.00;;;9.00;99.90;;;9.75;54.83;97630.31;5204882;28;20218;-59
2021/03/12 08:24:57;;;;;;;3.47;2.10;;;8.80;99.90;;;9.64;56.10;97634.78;5204779;28;20908;-60
2021/03/12 08:27:46;;;;;;;2.90;2.10;;;8.80;99.90;;;9.58;55.76;97639.56;5201562;28;20723;-60
2021/03/12 08:30:45;;;;;;;3.67;2.30;;;8.70;99.90;;;9.53;56.71;97640.94;5206007;28;20301;-59
2021/03/12 08:33:35;;;;;;;2.90;2.30;;;8.50;99.90;;;9.37;56.99;97634.97;5206006;28;20213;-60
2021/03/12 08:36:08;;;;;;;2.17;1.97;;;8.40;99.90;;;9.19;57.71;97644.13;5203780;28;20197;-60
2021/03/12 08:38:44;;;;;;;4.00;2.33;;;8.20;99.90;;;9.16;59.14;97633.75;5204009;28;20209;-59
2021/03/12 08:41:22;;;;;;;2.70;2.00;;;8.10;99.90;;;9.42;57.55;97633.59;5203219;28;20309;-60
2021/03/12 08:43:56;;;;;;;3.30;2.10;;;8.30;99.90;;;9.67;57.69;97634.97;5203868;28;20288;-59
2021/03/12 08:46:30;;;;;;;3.63;2.20;;;8.50;99.90;;;9.92;56.78;97638.09;5204812;28;20658;-60
2021/03/12 08:49:08;;;;;;;2.57;2.37;;;8.80;99.90;;;10.07;56.86;97632.09;5204302;28;20216;-60
2021/03/12 08:51:40;;;;;;;2.27;2.07;;;8.90;99.90;;;10.21;54.95;97626.06;5203432;28;20288;-59
2021/03/12 08:54:13;;;;;;;3.07;1.90;;;9.00;99.90;;;10.20;53.96;97631.97;5203622;28;20237;-59
2021/03/12 08:56:45;;;;;;;3.40;2.07;;;9.10;99.90;;;10.24;55.83;97623.69;5203931;28;20309;-60
2021/03/12 08:59:27;;;;;;;2.40;2.20;;;9.40;99.90;;;10.62;54.27;97626.59;5201498;28;20559;-60
2021/03/12 09:01:59;;;;;;;3.87;1.90;;;9.90;99.90;;;10.99;52.48;97621.72;5200745;28;20224;-60
2021/03/12 09:04:32;;;;;;;3.80;2.10;;;10.20;99.90;;;11.09;52.13;97625.63;5203445;28;20255;-59
2021/03/12 09:07:10;;;;;;;2.97;1.80;;;10.30;99.90;;;11.19;52.08;97631.28;5199905;28;20205;-59
2021/03/12 09:09:42;;;;;;;3.17;1.97;;;10.50;99.90;;;11.16;50.99;97620.91;5205400;28;20317;-60
2021/03/12 09:12:15;;;;;;;3.57;2.20;;;10.30;99.90;;;11.12;50.66;97626.63;5205141;28;20281;-60
2021/03/12 09:14:47;;;;;;;3.23;1.93;;;10.20;99.90;;;11.11;50.52;97630.00;5204931;28;20668;-59
2021/03/12 09:17:21;;;;;;;2.83;2.40;;;10.10;99.90;;;10.97;50.86;97633.53;5204221;28;20652;-60
2021/03/12 09:19:53;;;;;;;2.30;2.10;;;9.90;99.90;;;10.87;51.44;97627.06;5203712;28;20697;-60
2021/03/12 09:22:28;;;;;;;3.53;2.00;;;10.00;99.90;;;10.80;51.43;97630.09;5203712;28;20721;-57
2021/03/12 09:24:59;;;;;;;4.93;2.00;;;9.90;99.90;;;10.86;50.04;97624.44;5204208;28;20204;-60
2021/03/12 09:27:32;;;;;;;2.83;2.33;;;10.10;99.50;;;10.90;50.78;97618.66;5205298;28;20194;-60
2021/03/12 09:30:06;;;;;;;3.97;1.97;;;10.00;99.90;;;10.92;50.50;97607.72;5204676;28;20300;-60
2021/03/12 09:32:40;;;;;;;2.03;1.93;;;10.00;99.90;;;10.90;50.73;97608.44;5204122;28;20662;-60
2021/03/12 09:35:18;;;;;;;3.93;2.13;;;9.90;99.90;;;10.89;50.74;97609.25;5203103;28;20701;-60
2021/03/12 09:37:50;;;;;;;3.07;2.07;;;9.90;99.90;;;10.96;50.91;97596.88;5203462;28;20197;-59
2021/03/12 09:40:35;;;;;;;3.17;2.10;;;10.20;99.90;;;10.79;49.91;97597.69;5203781;28;20213;-58
2021/03/12 09:43:10;;;;;;;3.03;2.03;;;10.20;99.00;;;10.71;51.00;97591.28;5202714;28;20729;-59
2021/03/12 09:45:47;;;;;;;2.27;2.07;;;10.20;99.20;;;10.91;51.09;97592.31;5204087;28;20195;-58
2021/03/12 09:48:19;;;;;;;3.20;2.27;;;10.40;99.60;;;11.00;50.83;97585.97;5204330;28;20391;-60
2021/03/12 09:50:52;;;;;;;2.10;1.90;;;10.50;99.50;;;11.07;49.63;97586.28;5204322;28;20214;-60
2021/03/12 09:53:25;;;;;;;2.93;2.30;;;10.40;98.70;;;11.11;50.06;97576.28;5204653;28;20190;-59
2021/03/12 09:55:57;;;;;;;2.50;1.90;;;10.40;99.10;;;11.13;50.74;97579.81;5202646;28;20269;-59
2021/03/12 09:58:32;;;;;;;4.03;2.20;;;10.30;99.70;;;11.06;49.76;97582.84;5208453;28;20222;-60
2021/03/12 10:01:12;;;;;;;5.30;2.33;;;10.30;99.10;;;11.00;50.66;97577.44;5204164;28;20299;-60
2021/03/12 10:03:44;;;;;;;3.47;2.17;;;10.20;99.80;;;10.92;51.40;97584.69;5203787;28;20267;-60
2021/03/12 10:06:16;;;;;;;2.67;2.13;;;10.10;99.90;;;10.88;51.13;97584.50;5202380;28;20214;-60
2021/03/12 10:09:05;;;;;;;3.00;2.43;;;10.00;99.80;;;10.87;50.78;97572.47;5201951;28;20194;-60
2021/03/12 10:11:43;;;;;;;2.83;2.00;;;10.10;99.60;;;10.75;50.54;97580.41;5202860;28;20206;-60
2021/03/12 10:14:34;;;;;;;3.03;2.20;;;10.00;99.50;;;10.79;51.01;97577.22;5203430;28;20205;-60
2021/03/12 10:17:16;;;;;;;3.00;2.00;;;10.00;99.70;;;10.91;51.28;97580.41;5202310;28;20631;-61
2021/03/12 10:19:53;;;;;;;2.37;2.27;;;10.20;99.70;;;11.03;50.37;97578.47;5201988;28;20301;-61
2021/03/12 10:22:30;;;;;;;3.40;2.10;;;10.30;99.10;;;11.11;50.20;97583.97;5201539;28;20218;-61
2021/03/12 10:25:09;;;;;;;2.87;2.40;;;10.40;99.10;;;11.37;50.59;97566.47;5202028;28;20741;-60
2021/03/12 10:27:45;;;;;;;2.57;2.30;;;10.60;99.50;;;11.64;49.53;97574.59;5201774;28;20256;-61
2021/03/12 10:30:25;;;;;;;2.87;1.70;;;11.00;98.90;;;11.81;49.04;97562.59;5201179;28;20267;-60
2021/03/12 10:32:59;;;;;;;2.22;2.00;;;11.20;98.10;;;12.10;48.89;97552.09;5200554;28;20764;-60
2021/03/12 10:35:34;;;;;;;2.63;2.35;;;11.40;98.70;;;12.29;48.48;97552.91;5201356;28;20252;-60
2021/03/12 10:38:16;;;;;;;2.70;2.50;;;11.50;98.30;;;12.24;47.49;97549.25;5201554;28;20205;-61
2021/03/12 10:40:51;;;;;;;3.55;2.13;;;11.20;98.00;;;12.22;47.20;97556.00;5202699;28;20755;-61
2021/03/12 10:43:27;;;;;;;5.55;2.20;;;11.00;97.80;;;12.03;47.95;97557.72;5197988;28;20223;-61
2021/03/12 10:46:03;;;;;;;4.40;2.00;;;10.90;98.10;;;11.89;48.93;97556.22;5201365;28;20202;-61
2021/03/12 10:48:39;;;;;;;6.13;2.30;;;10.90;98.60;;;12.01;48.81;97558.47;5181687;28;20253;-60
2021/03/12 10:51:13;;;;;;;5.07;2.22;;;10.80;99.10;;;11.83;49.47;97545.66;5196939;28;20221;-61
2021/03/12 10:53:47;;;;;;;4.28;1.85;;;10.60;99.60;;;11.78;49.63;97544.53;5201258;28;20621;-61
2021/03/12 10:56:20;;;;;;;2.15;1.92;;;10.70;99.10;;;11.70;49.71;97549.28;5201584;28;20202;-60
2021/03/12 10:58:54;;;;;;;3.88;2.20;;;10.70;98.90;;;11.82;50.47;97546.47;5201496;28;20595;-61
2021/03/12 11:01:29;;;;;;;4.20;2.42;;;10.70;99.70;;;11.84;51.89;97542.25;5200794;28;20689;-61
2021/03/12 11:04:01;;;;;;;5.32;2.45;;;10.60;99.90;;;11.65;53.00;97561.91;5201833;28;20249;-61